sensor_id;sensor_type;location;lat;lon;timestamp;temperature;humidity
38606;DHT22;24365;48.446;8.850;2024-01-15T00:02:02;-2.20;56.70
38606;DHT22;24365;48.446;8.850;2024-01-15T00:07:04;-2.10;57.00
38606;DHT22;24365;48.446;8.850;2024-01-15T00:12:05;-2.00;56.70
38606;DHT22;24365;48.446;8.850;2024-01-15T00:17:05;-2.00;56.30
38606;DHT22;24365;48.446;8.850;2024-01-15T00:22:06;-2.10;56.70
38606;DHT22;24365;48.446;8.850;2024-01-15T00:27:07;-2.20;57.40
38606;DHT22;24365;48.446;8.850;2024-01-15T00:32:08;-2.20;57.60
38606;DHT22;24365;48.446;8.850;2024-01-15T00:37:09;-2.10;58.00
38606;DHT22;24365;48.446;8.850;2024-01-15T00:42:10;-2.10;57.90
38606;DHT22;24365;48.446;8.850;2024-01-15T00:47:11;-2.00;57.70
38606;DHT22;24365;48.446;8.850;2024-01-15T00:52:11;-2.10;57.80
38606;DHT22;24365;48.446;8.850;2024-01-15T00:57:12;-2.10;58.20
38606;DHT22;24365;48.446;8.850;2024-01-15T01:02:13;-2.00;58.20
38606;DHT22;24365;48.446;8.850;2024-01-15T01:07:14;-2.00;58.00
38606;DHT22;24365;48.446;8.850;2024-01-15T01:12:15;-2.00;58.30
38606;DHT22;24365;48.446;8.850;2024-01-15T01:17:16;-2.00;58.20
38606;DHT22;24365;48.446;8.850;2024-01-15T01:22:17;-2.00;58.00
38606;DHT22;24365;48.446;8.850;2024-01-15T01:27:18;-2.00;58.70
38606;DHT22;24365;48.446;8.850;2024-01-15T01:32:19;-2.00;58.80
38606;DHT22;24365;48.446;8.850;2024-01-15T01:37:20;-2.10;58.90
38606;DHT22;24365;48.446;8.850;2024-01-15T01:42:21;-2.10;59.80
38606;DHT22;24365;48.446;8.850;2024-01-15T01:47:21;-2.10;60.50
38606;DHT22;24365;48.446;8.850;2024-01-15T01:52:22;-2.00;60.00
38606;DHT22;24365;48.446;8.850;2024-01-15T01:57:24;-2.00;60.00
38606;DHT22;24365;48.446;8.850;2024-01-15T02:02:24;-2.00;60.30
38606;DHT22;24365;48.446;8.850;2024-01-15T02:07:26;-1.90;60.20
38606;DHT22;24365;48.446;8.850;2024-01-15T02:12:27;-1.90;60.10
38606;DHT22;24365;48.446;8.850;2024-01-15T02:17:28;-1.90;60.10
38606;DHT22;24365;48.446;8.850;2024-01-15T02:22:28;-1.90;60.00
38606;DHT22;24365;48.446;8.850;2024-01-15T02:27:29;-1.90;60.60
38606;DHT22;24365;48.446;8.850;2024-01-15T02:32:30;-1.80;60.40
38606;DHT22;24365;48.446;8.850;2024-01-15T02:37:31;-1.80;60.20
38606;DHT22;24365;48.446;8.850;2024-01-15T02:42:32;-1.80;60.30
38606;DHT22;24365;48.446;8.850;2024-01-15T02:47:32;-1.80;60.40
38606;DHT22;24365;48.446;8.850;2024-01-15T02:52:33;-1.70;60.80
38606;DHT22;24365;48.446;8.850;2024-01-15T02:57:34;-1.80;60.50
38606;DHT22;24365;48.446;8.850;2024-01-15T03:02:36;-1.80;60.50
38606;DHT22;24365;48.446;8.850;2024-01-15T03:07:38;-1.80;60.80
38606;DHT22;24365;48.446;8.850;2024-01-15T03:12:38;-1.80;61.20
38606;DHT22;24365;48.446;8.850;2024-01-15T03:17:41;-2.00;61.70
38606;DHT22;24365;48.446;8.850;2024-01-15T03:22:41;-2.00;62.50
38606;DHT22;24365;48.446;8.850;2024-01-15T03:27:42;-1.90;62.80
38606;DHT22;24365;48.446;8.850;2024-01-15T03:32:43;-2.00;62.90
38606;DHT22;24365;48.446;8.850;2024-01-15T03:37:44;-2.00;63.60
38606;DHT22;24365;48.446;8.850;2024-01-15T03:42:45;-2.00;63.60
38606;DHT22;24365;48.446;8.850;2024-01-15T03:47:46;-2.00;64.20
38606;DHT22;24365;48.446;8.850;2024-01-15T03:52:46;-1.90;64.00
38606;DHT22;24365;48.446;8.850;2024-01-15T03:57:47;-1.80;63.80
38606;DHT22;24365;48.446;8.850;2024-01-15T04:02:48;-1.70;63.40
38606;DHT22;24365;48.446;8.850;2024-01-15T04:07:49;-1.60;63.30
38606;DHT22;24365;48.446;8.850;2024-01-15T04:12:50;-1.60;62.80
38606;DHT22;24365;48.446;8.850;2024-01-15T04:17:51;-1.60;62.60
38606;DHT22;24365;48.446;8.850;2024-01-15T04:22:52;-1.60;62.80
38606;DHT22;24365;48.446;8.850;2024-01-15T04:27:53;-1.50;63.50
38606;DHT22;24365;48.446;8.850;2024-01-15T04:32:54;-1.50;63.30
38606;DHT22;24365;48.446;8.850;2024-01-15T04:37:56;-1.40;63.30
38606;DHT22;24365;48.446;8.850;2024-01-15T04:42:56;-1.50;63.70
38606;DHT22;24365;48.446;8.850;2024-01-15T04:47:57;-1.50;64.30
38606;DHT22;24365;48.446;8.850;2024-01-15T04:52:58;-1.50;65.30
38606;DHT22;24365;48.446;8.850;2024-01-15T04:57:59;-1.50;65.60
38606;DHT22;24365;48.446;8.850;2024-01-15T05:03:00;-1.50;66.30
38606;DHT22;24365;48.446;8.850;2024-01-15T05:08:00;-1.40;66.50
38606;DHT22;24365;48.446;8.850;2024-01-15T05:13:01;-1.40;66.30
38606;DHT22;24365;48.446;8.850;2024-01-15T05:18:02;-1.40;66.20
38606;DHT22;24365;48.446;8.850;2024-01-15T05:23:03;-1.40;66.10
38606;DHT22;24365;48.446;8.850;2024-01-15T05:28:05;-1.40;66.30
38606;DHT22;24365;48.446;8.850;2024-01-15T05:33:06;-1.40;65.80
38606;DHT22;24365;48.446;8.850;2024-01-15T05:38:07;-1.40;65.40
38606;DHT22;24365;48.446;8.850;2024-01-15T05:43:08;-1.40;65.10
38606;DHT22;24365;48.446;8.850;2024-01-15T05:48:09;-1.40;65.20
38606;DHT22;24365;48.446;8.850;2024-01-15T05:53:10;-1.40;65.00
38606;DHT22;24365;48.446;8.850;2024-01-15T05:58:11;-1.30;64.40
38606;DHT22;24365;48.446;8.850;2024-01-15T06:03:12;-1.20;63.10
38606;DHT22;24365;48.446;8.850;2024-01-15T06:08:13;-1.30;63.00
38606;DHT22;24365;48.446;8.850;2024-01-15T06:13:15;-1.20;62.70
38606;DHT22;24365;48.446;8.850;2024-01-15T06:18:16;-1.20;62.60
38606;DHT22;24365;48.446;8.850;2024-01-15T06:23:16;-1.20;63.10
38606;DHT22;24365;48.446;8.850;2024-01-15T06:28:17;-1.30;63.20
38606;DHT22;24365;48.446;8.850;2024-01-15T06:33:18;-1.30;63.10
38606;DHT22;24365;48.446;8.850;2024-01-15T06:38:19;-1.30;63.00
38606;DHT22;24365;48.446;8.850;2024-01-15T06:43:20;-1.30;63.30
38606;DHT22;24365;48.446;8.850;2024-01-15T06:48:21;-1.20;63.30
38606;DHT22;24365;48.446;8.850;2024-01-15T06:53:22;-1.30;62.90
38606;DHT22;24365;48.446;8.850;2024-01-15T06:58:23;-1.40;63.00
38606;DHT22;24365;48.446;8.850;2024-01-15T07:03:24;-1.40;62.40
38606;DHT22;24365;48.446;8.850;2024-01-15T07:08:25;-1.40;62.60
38606;DHT22;24365;48.446;8.850;2024-01-15T07:13:26;-1.30;63.20
38606;DHT22;24365;48.446;8.850;2024-01-15T07:18:27;-1.30;62.20
38606;DHT22;24365;48.446;8.850;2024-01-15T07:23:28;-1.30;62.20
38606;DHT22;24365;48.446;8.850;2024-01-15T07:28:28;-1.40;61.30
38606;DHT22;24365;48.446;8.850;2024-01-15T07:33:29;-1.40;61.70
38606;DHT22;24365;48.446;8.850;2024-01-15T07:38:31;-1.20;60.40
38606;DHT22;24365;48.446;8.850;2024-01-15T07:43:31;-1.10;59.20
38606;DHT22;24365;48.446;8.850;2024-01-15T07:48:32;-1.00;57.10
38606;DHT22;24365;48.446;8.850;2024-01-15T07:53:33;-0.80;56.60
38606;DHT22;24365;48.446;8.850;2024-01-15T07:58:34;-0.80;55.40
38606;DHT22;24365;48.446;8.850;2024-01-15T08:03:35;-0.80;55.10
38606;DHT22;24365;48.446;8.850;2024-01-15T08:08:36;-0.70;55.60
38606;DHT22;24365;48.446;8.850;2024-01-15T08:13:37;-0.80;55.50
38606;DHT22;24365;48.446;8.850;2024-01-15T08:18:38;-0.80;55.60
38606;DHT22;24365;48.446;8.850;2024-01-15T08:23:39;-0.80;55.00
38606;DHT22;24365;48.446;8.850;2024-01-15T08:28:40;-0.80;55.50
38606;DHT22;24365;48.446;8.850;2024-01-15T08:33:40;-0.90;55.50
38606;DHT22;24365;48.446;8.850;2024-01-15T08:38:41;-0.80;55.50
38606;DHT22;24365;48.446;8.850;2024-01-15T08:43:42;-0.60;54.60
38606;DHT22;24365;48.446;8.850;2024-01-15T08:48:43;-0.50;53.40
38606;DHT22;24365;48.446;8.850;2024-01-15T08:53:44;-0.40;53.40
38606;DHT22;24365;48.446;8.850;2024-01-15T08:58:45;-0.40;53.20
38606;DHT22;24365;48.446;8.850;2024-01-15T09:03:46;-0.40;54.00
38606;DHT22;24365;48.446;8.850;2024-01-15T09:08:49;-0.50;53.90
38606;DHT22;24365;48.446;8.850;2024-01-15T09:13:50;-0.50;54.20
38606;DHT22;24365;48.446;8.850;2024-01-15T09:18:52;-0.50;54.10
38606;DHT22;24365;48.446;8.850;2024-01-15T09:23:53;-0.40;53.00
38606;DHT22;24365;48.446;8.850;2024-01-15T09:28:54;-0.20;52.60
38606;DHT22;24365;48.446;8.850;2024-01-15T09:33:55;0.00;52.60
38606;DHT22;24365;48.446;8.850;2024-01-15T09:38:57;0.10;51.80
38606;DHT22;24365;48.446;8.850;2024-01-15T09:43:58;0.30;50.90
38606;DHT22;24365;48.446;8.850;2024-01-15T09:48:59;0.40;50.40
38606;DHT22;24365;48.446;8.850;2024-01-15T09:54:00;0.50;49.70
38606;DHT22;24365;48.446;8.850;2024-01-15T09:59:02;0.50;49.20
38606;DHT22;24365;48.446;8.850;2024-01-15T10:04:04;0.70;49.30
38606;DHT22;24365;48.446;8.850;2024-01-15T10:09:05;0.60;49.10
38606;DHT22;24365;48.446;8.850;2024-01-15T10:14:11;0.70;48.80
38606;DHT22;24365;48.446;8.850;2024-01-15T10:19:15;0.70;49.40
38606;DHT22;24365;48.446;8.850;2024-01-15T10:24:16;0.70;49.80
38606;DHT22;24365;48.446;8.850;2024-01-15T10:29:17;0.80;49.10
38606;DHT22;24365;48.446;8.850;2024-01-15T10:34:18;0.80;48.60
38606;DHT22;24365;48.446;8.850;2024-01-15T10:39:22;1.00;48.80
38606;DHT22;24365;48.446;8.850;2024-01-15T10:44:22;1.10;48.00
38606;DHT22;24365;48.446;8.850;2024-01-15T10:49:24;1.20;48.30
38606;DHT22;24365;48.446;8.850;2024-01-15T10:54:27;1.20;48.10
38606;DHT22;24365;48.446;8.850;2024-01-15T10:59:28;1.10;48.80
38606;DHT22;24365;48.446;8.850;2024-01-15T11:04:31;1.00;49.60
38606;DHT22;24365;48.446;8.850;2024-01-15T11:09:32;1.10;50.80
38606;DHT22;24365;48.446;8.850;2024-01-15T11:14:33;1.00;49.80
38606;DHT22;24365;48.446;8.850;2024-01-15T11:19:38;1.00;50.20
38606;DHT22;24365;48.446;8.850;2024-01-15T11:24:42;0.90;51.30
38606;DHT22;24365;48.446;8.850;2024-01-15T11:29:43;0.90;51.80
38606;DHT22;24365;48.446;8.850;2024-01-15T11:39:52;0.80;53.40
38606;DHT22;24365;48.446;8.850;2024-01-15T11:44:53;0.90;53.50
38606;DHT22;24365;48.446;8.850;2024-01-15T11:49:58;0.80;53.10
38606;DHT22;24365;48.446;8.850;2024-01-15T12:00:08;0.90;54.30
38606;DHT22;24365;48.446;8.850;2024-01-15T12:05:14;0.90;54.50
38606;DHT22;24365;48.446;8.850;2024-01-15T12:10:16;0.90;55.40
38606;DHT22;24365;48.446;8.850;2024-01-15T12:15:17;0.90;55.00
38606;DHT22;24365;48.446;8.850;2024-01-15T12:20:18;0.80;56.00
38606;DHT22;24365;48.446;8.850;2024-01-15T12:25:21;0.90;55.80
38606;DHT22;24365;48.446;8.850;2024-01-15T12:30:23;0.80;55.70
38606;DHT22;24365;48.446;8.850;2024-01-15T12:35:24;0.80;56.10
38606;DHT22;24365;48.446;8.850;2024-01-15T12:40:25;0.80;56.20
38606;DHT22;24365;48.446;8.850;2024-01-15T12:45:26;0.70;57.70
38606;DHT22;24365;48.446;8.850;2024-01-15T12:50:27;0.80;58.50
38606;DHT22;24365;48.446;8.850;2024-01-15T12:55:28;0.80;58.30
38606;DHT22;24365;48.446;8.850;2024-01-15T13:00:31;0.80;58.50
38606;DHT22;24365;48.446;8.850;2024-01-15T13:05:32;0.80;59.10
38606;DHT22;24365;48.446;8.850;2024-01-15T13:10:33;0.80;58.80
38606;DHT22;24365;48.446;8.850;2024-01-15T13:15:34;0.80;59.60
38606;DHT22;24365;48.446;8.850;2024-01-15T13:20:35;0.70;60.80
38606;DHT22;24365;48.446;8.850;2024-01-15T13:25:36;0.70;61.90
38606;DHT22;24365;48.446;8.850;2024-01-15T13:30:39;0.70;62.60
38606;DHT22;24365;48.446;8.850;2024-01-15T13:35:39;0.70;63.30
38606;DHT22;24365;48.446;8.850;2024-01-15T13:40:40;0.70;64.20
38606;DHT22;24365;48.446;8.850;2024-01-15T13:45:41;0.60;64.60
38606;DHT22;24365;48.446;8.850;2024-01-15T13:50:42;0.60;65.20
38606;DHT22;24365;48.446;8.850;2024-01-15T13:55:43;0.50;65.50
38606;DHT22;24365;48.446;8.850;2024-01-15T14:00:43;0.60;65.80
38606;DHT22;24365;48.446;8.850;2024-01-15T14:05:45;0.50;65.90
38606;DHT22;24365;48.446;8.850;2024-01-15T14:10:45;0.50;65.80
38606;DHT22;24365;48.446;8.850;2024-01-15T14:15:46;0.50;66.00
38606;DHT22;24365;48.446;8.850;2024-01-15T14:20:49;0.40;67.60
38606;DHT22;24365;48.446;8.850;2024-01-15T14:25:50;0.40;68.50
38606;DHT22;24365;48.446;8.850;2024-01-15T14:30:51;0.30;69.10
38606;DHT22;24365;48.446;8.850;2024-01-15T14:35:52;0.40;69.60
38606;DHT22;24365;48.446;8.850;2024-01-15T14:40:53;0.40;70.10
38606;DHT22;24365;48.446;8.850;2024-01-15T14:45:54;0.40;70.90
38606;DHT22;24365;48.446;8.850;2024-01-15T14:50:54;0.40;71.00
38606;DHT22;24365;48.446;8.850;2024-01-15T14:55:55;0.40;70.90
38606;DHT22;24365;48.446;8.850;2024-01-15T15:00:56;0.40;70.70
38606;DHT22;24365;48.446;8.850;2024-01-15T15:05:57;0.40;70.60
38606;DHT22;24365;48.446;8.850;2024-01-15T15:10:58;0.30;71.00
38606;DHT22;24365;48.446;8.850;2024-01-15T15:15:59;0.30;69.90
38606;DHT22;24365;48.446;8.850;2024-01-15T15:21:00;0.20;70.40
38606;DHT22;24365;48.446;8.850;2024-01-15T15:26:01;0.10;70.20
38606;DHT22;24365;48.446;8.850;2024-01-15T15:31:02;0.10;71.50
38606;DHT22;24365;48.446;8.850;2024-01-15T15:36:04;0.10;72.70
38606;DHT22;24365;48.446;8.850;2024-01-15T15:41:05;0.00;69.90
38606;DHT22;24365;48.446;8.850;2024-01-15T15:46:06;0.00;69.00
38606;DHT22;24365;48.446;8.850;2024-01-15T15:51:07;0.00;67.10
38606;DHT22;24365;48.446;8.850;2024-01-15T15:56:08;0.00;66.20
38606;DHT22;24365;48.446;8.850;2024-01-15T16:01:10;0.00;65.70
38606;DHT22;24365;48.446;8.850;2024-01-15T16:06:12;0.00;65.50
38606;DHT22;24365;48.446;8.850;2024-01-15T16:11:14;-0.20;66.00
38606;DHT22;24365;48.446;8.850;2024-01-15T16:16:15;-0.10;65.90
38606;DHT22;24365;48.446;8.850;2024-01-15T16:21:16;-0.10;66.50
38606;DHT22;24365;48.446;8.850;2024-01-15T16:26:16;-0.20;66.90
38606;DHT22;24365;48.446;8.850;2024-01-15T16:31:18;-0.30;66.00
38606;DHT22;24365;48.446;8.850;2024-01-15T16:36:19;-0.30;67.30
38606;DHT22;24365;48.446;8.850;2024-01-15T16:41:21;-0.20;66.90
38606;DHT22;24365;48.446;8.850;2024-01-15T16:46:22;-0.20;66.00
38606;DHT22;24365;48.446;8.850;2024-01-15T16:51:23;-0.20;62.40
38606;DHT22;24365;48.446;8.850;2024-01-15T16:56:23;-0.30;62.50
38606;DHT22;24365;48.446;8.850;2024-01-15T17:01:25;-0.30;61.90
38606;DHT22;24365;48.446;8.850;2024-01-15T17:06:26;-0.40;60.60
38606;DHT22;24365;48.446;8.850;2024-01-15T17:11:26;-0.40;60.10
38606;DHT22;24365;48.446;8.850;2024-01-15T17:16:29;-0.50;60.40
38606;DHT22;24365;48.446;8.850;2024-01-15T17:21:30;-0.30;59.70
38606;DHT22;24365;48.446;8.850;2024-01-15T17:26:31;-0.40;58.30
38606;DHT22;24365;48.446;8.850;2024-01-15T17:31:32;-0.40;58.10
38606;DHT22;24365;48.446;8.850;2024-01-15T17:36:33;-0.40;57.90
38606;DHT22;24365;48.446;8.850;2024-01-15T17:41:34;-0.40;56.60
38606;DHT22;24365;48.446;8.850;2024-01-15T17:46:36;-0.50;56.70
38606;DHT22;24365;48.446;8.850;2024-01-15T17:51:37;-0.50;57.10
38606;DHT22;24365;48.446;8.850;2024-01-15T17:56:39;-0.50;57.40
38606;DHT22;24365;48.446;8.850;2024-01-15T18:01:40;-0.60;56.70
38606;DHT22;24365;48.446;8.850;2024-01-15T18:06:43;-0.60;58.00
38606;DHT22;24365;48.446;8.850;2024-01-15T18:11:44;-0.70;57.20
38606;DHT22;24365;48.446;8.850;2024-01-15T18:16:45;-0.70;56.10
38606;DHT22;24365;48.446;8.850;2024-01-15T18:21:49;-0.70;56.50
38606;DHT22;24365;48.446;8.850;2024-01-15T18:26:51;-0.70;56.60
38606;DHT22;24365;48.446;8.850;2024-01-15T18:31:52;-0.70;56.40
38606;DHT22;24365;48.446;8.850;2024-01-15T18:36:53;-0.70;56.80
38606;DHT22;24365;48.446;8.850;2024-01-15T18:41:54;-0.80;55.80
38606;DHT22;24365;48.446;8.850;2024-01-15T18:46:55;-0.90;55.20
38606;DHT22;24365;48.446;8.850;2024-01-15T18:51:56;-0.80;55.30
38606;DHT22;24365;48.446;8.850;2024-01-15T18:56:57;-0.90;55.10
38606;DHT22;24365;48.446;8.850;2024-01-15T19:01:58;-1.00;56.20
38606;DHT22;24365;48.446;8.850;2024-01-15T19:06:58;-1.10;54.80
38606;DHT22;24365;48.446;8.850;2024-01-15T19:12:01;-1.10;54.60
38606;DHT22;24365;48.446;8.850;2024-01-15T19:17:02;-1.10;54.20
38606;DHT22;24365;48.446;8.850;2024-01-15T19:22:05;-1.10;54.90
38606;DHT22;24365;48.446;8.850;2024-01-15T19:27:05;-1.00;54.60
38606;DHT22;24365;48.446;8.850;2024-01-15T19:32:07;-1.00;53.90
38606;DHT22;24365;48.446;8.850;2024-01-15T19:37:08;-1.00;54.20
38606;DHT22;24365;48.446;8.850;2024-01-15T19:42:08;-1.10;53.80
38606;DHT22;24365;48.446;8.850;2024-01-15T19:47:09;-1.20;53.90
38606;DHT22;24365;48.446;8.850;2024-01-15T19:52:10;-1.10;54.00
38606;DHT22;24365;48.446;8.850;2024-01-15T19:57:11;-1.20;53.10
38606;DHT22;24365;48.446;8.850;2024-01-15T20:02:12;-1.20;55.10
38606;DHT22;24365;48.446;8.850;2024-01-15T20:07:13;-1.10;54.70
38606;DHT22;24365;48.446;8.850;2024-01-15T20:12:13;-1.10;53.90
38606;DHT22;24365;48.446;8.850;2024-01-15T20:17:14;-1.10;54.60
38606;DHT22;24365;48.446;8.850;2024-01-15T20:22:15;-1.00;55.30
38606;DHT22;24365;48.446;8.850;2024-01-15T20:27:16;-1.10;55.30
38606;DHT22;24365;48.446;8.850;2024-01-15T20:32:18;-1.10;55.50
38606;DHT22;24365;48.446;8.850;2024-01-15T20:37:19;-1.00;55.40
38606;DHT22;24365;48.446;8.850;2024-01-15T20:42:20;-1.00;54.30
38606;DHT22;24365;48.446;8.850;2024-01-15T20:47:20;-1.00;54.50
38606;DHT22;24365;48.446;8.850;2024-01-15T20:52:22;-1.10;54.60
38606;DHT22;24365;48.446;8.850;2024-01-15T20:57:23;-1.10;54.50
38606;DHT22;24365;48.446;8.850;2024-01-15T21:02:24;-1.20;54.60
38606;DHT22;24365;48.446;8.850;2024-01-15T21:07:25;-1.20;54.90
38606;DHT22;24365;48.446;8.850;2024-01-15T21:12:28;-1.30;54.60
38606;DHT22;24365;48.446;8.850;2024-01-15T21:17:29;-1.40;54.10
38606;DHT22;24365;48.446;8.850;2024-01-15T21:22:30;-1.50;54.60
38606;DHT22;24365;48.446;8.850;2024-01-15T21:27:31;-1.60;54.90
38606;DHT22;24365;48.446;8.850;2024-01-15T21:32:32;-1.70;55.20
38606;DHT22;24365;48.446;8.850;2024-01-15T21:37:33;-1.70;55.60
38606;DHT22;24365;48.446;8.850;2024-01-15T21:42:34;-1.80;56.10
38606;DHT22;24365;48.446;8.850;2024-01-15T21:47:38;-2.00;55.40
38606;DHT22;24365;48.446;8.850;2024-01-15T21:52:39;-2.00;55.90
38606;DHT22;24365;48.446;8.850;2024-01-15T21:57:40;-2.00;57.50
38606;DHT22;24365;48.446;8.850;2024-01-15T22:02:41;-2.00;57.60
38606;DHT22;24365;48.446;8.850;2024-01-15T22:07:43;-2.00;57.60
38606;DHT22;24365;48.446;8.850;2024-01-15T22:12:45;-2.00;58.20
38606;DHT22;24365;48.446;8.850;2024-01-15T22:17:46;-1.90;58.40
38606;DHT22;24365;48.446;8.850;2024-01-15T22:22:48;-1.90;58.30
38606;DHT22;24365;48.446;8.850;2024-01-15T22:27:49;-1.90;58.30
38606;DHT22;24365;48.446;8.850;2024-01-15T22:32:50;-1.90;58.30
38606;DHT22;24365;48.446;8.850;2024-01-15T22:37:51;-1.80;58.30
38606;DHT22;24365;48.446;8.850;2024-01-15T22:42:52;-1.80;58.20
38606;DHT22;24365;48.446;8.850;2024-01-15T22:47:53;-1.90;57.60
38606;DHT22;24365;48.446;8.850;2024-01-15T22:52:53;-1.90;57.00
38606;DHT22;24365;48.446;8.850;2024-01-15T22:57:54;-2.00;57.80
38606;DHT22;24365;48.446;8.850;2024-01-15T23:02:55;-2.00;57.80
38606;DHT22;24365;48.446;8.850;2024-01-15T23:07:57;-2.10;57.70
38606;DHT22;24365;48.446;8.850;2024-01-15T23:12:58;-2.10;56.40
38606;DHT22;24365;48.446;8.850;2024-01-15T23:17:59;-2.10;56.60
38606;DHT22;24365;48.446;8.850;2024-01-15T23:23:00;-2.10;57.50
38606;DHT22;24365;48.446;8.850;2024-01-15T23:28:01;-2.10;57.90
38606;DHT22;24365;48.446;8.850;2024-01-15T23:33:03;-2.00;58.40
38606;DHT22;24365;48.446;8.850;2024-01-15T23:38:04;-1.90;56.90
38606;DHT22;24365;48.446;8.850;2024-01-15T23:43:05;-1.90;56.70
38606;DHT22;24365;48.446;8.850;2024-01-15T23:48:06;-2.00;56.70
38606;DHT22;24365;48.446;8.850;2024-01-15T23:53:07;-1.80;55.80
38606;DHT22;24365;48.446;8.850;2024-01-15T23:58:08;-1.80;56.50
